Oceana — OP3107 — position and weather

sailwx.info

Track history (hours):
 
Tides and Currents Weather Stations Pressure Air Temp Water Temp Dewpoint Dewpoint Depression Visibility Wind Speed Wind Dir Waves Ship Positions

Oceana

Last reported at 2017-Dec-11 05:29 UTC. Time now 2017-Dec-11 05:45 UTC.
Position S 33°39' E 151°18'.

Length 14 m.

Type: Sailing vessel. MMSI: 205310730.

Date/timePositionNaut miles runAvg speedWind from/ knotsBaromVisibWave heightAir tempDewpointWater temp
2017-Dec-11 05:29S 33°39' E 151°18'0 0.0
2017-Dec-11 04:59S 33°39' E 151°18'0 0.0
2017-Dec-11 04:29S 33°39' E 151°18'0 0.0
2017-Dec-11 03:56S 33°39' E 151°18'0 0.0
2017-Dec-11 03:29S 33°39' E 151°18'0 0.0
2017-Dec-11 03:00S 33°39' E 151°18'0 0.0
2017-Dec-11 02:27S 33°39' E 151°18'0 0.0
2017-Dec-11 01:57S 33°39' E 151°18'0 0.0
2017-Dec-11 01:30S 33°39' E 151°18'0 0.0
2017-Dec-11 00:57S 33°39' E 151°18'0 0.6
2017-Dec-11 00:30S 33°39' E 151°18'0 0.1
2017-Dec-11 00:00S 33°39' E 151°18'0 0.0
2017-Dec-10 23:30S 33°39' E 151°18'0 0.6
2017-Dec-10 23:00S 33°39' E 151°18'  
2017-Dec-08 00:22S 33°39' E 151°18'0 0.9
2017-Dec-08 00:00S 33°39' E 151°18'2 0.3
2017-Dec-07 18:38S 33°38' E 151°19'0 0.8
2017-Dec-07 18:30S 33°38' E 151°19'49 5.7
2017-Dec-07 09:53S 33°02' E 151°59'2 6.3
2017-Dec-07 09:30S 33°00' E 152°01'3 6.3
2017-Dec-07 09:00S 32°58' E 152°04'3 6.2
2017-Dec-07 08:30S 32°56' E 152°07'3 6.0
2017-Dec-07 08:00S 32°54' E 152°09'3 6.0
2017-Dec-07 07:30S 32°52' E 152°12'3 6.0
2017-Dec-07 07:00S 32°50' E 152°14'3 6.0
2017-Dec-07 06:30S 32°47' E 152°17'3 5.6
2017-Dec-07 06:00S 32°45' E 152°19'3 5.6
2017-Dec-07 05:30S 32°43' E 152°21'3 5.9
2017-Dec-07 05:00S 32°41' E 152°23'3 6.0
2017-Dec-07 04:30S 32°39' E 152°25'4 6.6
2017-Dec-07 03:57S 32°36' E 152°28'3 6.8
2017-Dec-07 03:30S 32°34' E 152°31'3 6.8
2017-Dec-07 03:00S 32°31' E 152°33'  
2017-Dec-04 07:06S 27°52' E 153°20'0 0.0
2017-Dec-03 23:33S 27°52' E 153°20'0 0.0
2017-Dec-03 23:30S 27°52' E 153°20'0 0.1
2017-Dec-03 23:00S 27°52' E 153°20'0 0.0
2017-Dec-03 22:30S 27°52' E 153°20'  
2017-Dec-01 06:04S 27°52' E 153°20'0 0.0
2017-Dec-01 05:58S 27°52' E 153°20'  
Track history (hours):
 
Tides and Currents Weather Stations Pressure Air Temp Water Temp Dewpoint Dewpoint Depression Visibility Wind Speed Wind Dir Waves Ship Positions

Oceana

Last reported at 2017-Dec-11 05:29 UTC. Time now 2017-Dec-11 05:45 UTC.
Position S 33°39' E 151°18'.

Length 14 m.

Type: Sailing vessel. MMSI: 205310730.

Date/timePositionNaut miles runAvg speedWind from/ knotsBaromVisibWave heightAir tempDewpointWater temp
2017-Dec-11 05:29S 33°39' E 151°18'0 0.0
2017-Dec-11 04:59S 33°39' E 151°18'0 0.0
2017-Dec-11 04:29S 33°39' E 151°18'0 0.0
2017-Dec-11 03:56S 33°39' E 151°18'0 0.0
2017-Dec-11 03:29S 33°39' E 151°18'0 0.0
2017-Dec-11 03:00S 33°39' E 151°18'0 0.0
2017-Dec-11 02:27S 33°39' E 151°18'0 0.0
2017-Dec-11 01:57S 33°39' E 151°18'0 0.0
2017-Dec-11 01:30S 33°39' E 151°18'0 0.0
2017-Dec-11 00:57S 33°39' E 151°18'0 0.6
2017-Dec-11 00:30S 33°39' E 151°18'0 0.1
2017-Dec-11 00:00S 33°39' E 151°18'0 0.0
2017-Dec-10 23:30S 33°39' E 151°18'0 0.6
2017-Dec-10 23:00S 33°39' E 151°18'  
2017-Dec-08 00:22S 33°39' E 151°18'0 0.9
2017-Dec-08 00:00S 33°39' E 151°18'2 0.3
2017-Dec-07 18:38S 33°38' E 151°19'0 0.8
2017-Dec-07 18:30S 33°38' E 151°19'49 5.7
2017-Dec-07 09:53S 33°02' E 151°59'2 6.3
2017-Dec-07 09:30S 33°00' E 152°01'3 6.3
2017-Dec-07 09:00S 32°58' E 152°04'3 6.2
2017-Dec-07 08:30S 32°56' E 152°07'3 6.0
2017-Dec-07 08:00S 32°54' E 152°09'3 6.0
2017-Dec-07 07:30S 32°52' E 152°12'3 6.0
2017-Dec-07 07:00S 32°50' E 152°14'3 6.0
2017-Dec-07 06:30S 32°47' E 152°17'3 5.6
2017-Dec-07 06:00S 32°45' E 152°19'3 5.6
2017-Dec-07 05:30S 32°43' E 152°21'3 5.9
2017-Dec-07 05:00S 32°41' E 152°23'3 6.0
2017-Dec-07 04:30S 32°39' E 152°25'4 6.6
2017-Dec-07 03:57S 32°36' E 152°28'3 6.8
2017-Dec-07 03:30S 32°34' E 152°31'3 6.8
2017-Dec-07 03:00S 32°31' E 152°33'  
2017-Dec-04 07:06S 27°52' E 153°20'0 0.0
2017-Dec-03 23:33S 27°52' E 153°20'0 0.0
2017-Dec-03 23:30S 27°52' E 153°20'0 0.1
2017-Dec-03 23:00S 27°52' E 153°20'0 0.0
2017-Dec-03 22:30S 27°52' E 153°20'  
2017-Dec-01 06:04S 27°52' E 153°20'0 0.0
2017-Dec-01 05:58S 27°52' E 153°20'  

Dump ship's entire track history